sensor_id;sensor_type;location;lat;lon;timestamp;P1;durP1;ratioP1;P2;durP2;ratioP2
7027;SDS011;3555;53.248;10.336;2023-08-01T00:00:45;1.20;;;0.90;;
7027;SDS011;3555;53.248;10.336;2023-08-01T00:03:12;1.52;;;1.20;;
7027;SDS011;3555;53.248;10.336;2023-08-01T00:05:39;2.90;;;0.98;;
7027;SDS011;3555;53.248;10.336;2023-08-01T00:08:09;1.58;;;0.90;;
7027;SDS011;3555;53.248;10.336;2023-08-01T00:10:39;2.50;;;0.93;;
7027;SDS011;3555;53.248;10.336;2023-08-01T00:13:06;1.33;;;0.82;;
7027;SDS011;3555;53.248;10.336;2023-08-01T00:15:33;2.65;;;0.90;;
7027;SDS011;3555;53.248;10.336;2023-08-01T00:18:01;1.02;;;0.80;;
7027;SDS011;3555;53.248;10.336;2023-08-01T00:20:28;1.85;;;1.00;;
7027;SDS011;3555;53.248;10.336;2023-08-01T00:22:55;3.05;;;0.90;;
7027;SDS011;3555;53.248;10.336;2023-08-01T00:25:22;1.15;;;0.85;;
7027;SDS011;3555;53.248;10.336;2023-08-01T00:27:50;4.60;;;0.90;;
7027;SDS011;3555;53.248;10.336;2023-08-01T00:30:17;1.35;;;0.90;;
7027;SDS011;3555;53.248;10.336;2023-08-01T00:32:44;0.90;;;0.80;;
7027;SDS011;3555;53.248;10.336;2023-08-01T00:35:11;1.13;;;0.82;;
7027;SDS011;3555;53.248;10.336;2023-08-01T00:37:37;1.80;;;0.90;;
7027;SDS011;3555;53.248;10.336;2023-08-01T00:40:05;1.02;;;0.82;;
7027;SDS011;3555;53.248;10.336;2023-08-01T00:42:35;2.97;;;0.70;;
7027;SDS011;3555;53.248;10.336;2023-08-01T00:45:04;0.88;;;0.70;;
7027;SDS011;3555;53.248;10.336;2023-08-01T00:47:32;1.20;;;0.90;;
7027;SDS011;3555;53.248;10.336;2023-08-01T00:49:59;1.58;;;0.77;;
7027;SDS011;3555;53.248;10.336;2023-08-01T00:52:26;1.13;;;0.80;;
7027;SDS011;3555;53.248;10.336;2023-08-01T00:54:54;1.02;;;0.82;;
7027;SDS011;3555;53.248;10.336;2023-08-01T00:57:21;1.05;;;0.85;;
7027;SDS011;3555;53.248;10.336;2023-08-01T00:59:48;1.00;;;0.80;;
7027;SDS011;3555;53.248;10.336;2023-08-01T01:02:16;2.05;;;1.00;;
7027;SDS011;3555;53.248;10.336;2023-08-01T01:04:43;3.97;;;1.35;;
7027;SDS011;3555;53.248;10.336;2023-08-01T01:07:10;1.52;;;1.20;;
7027;SDS011;3555;53.248;10.336;2023-08-01T01:09:38;1.83;;;1.30;;
7027;SDS011;3555;53.248;10.336;2023-08-01T01:12:05;1.85;;;1.67;;
7027;SDS011;3555;53.248;10.336;2023-08-01T01:14:33;1.88;;;1.58;;
7027;SDS011;3555;53.248;10.336;2023-08-01T01:17:00;1.60;;;1.45;;
7027;SDS011;3555;53.248;10.336;2023-08-01T01:19:29;1.90;;;1.65;;
7027;SDS011;3555;53.248;10.336;2023-08-01T01:21:57;2.17;;;1.60;;
7027;SDS011;3555;53.248;10.336;2023-08-01T01:24:24;1.88;;;1.67;;
7027;SDS011;3555;53.248;10.336;2023-08-01T01:26:53;3.03;;;2.13;;
7027;SDS011;3555;53.248;10.336;2023-08-01T01:29:21;2.30;;;2.10;;
7027;SDS011;3555;53.248;10.336;2023-08-01T01:31:49;2.22;;;2.00;;
7027;SDS011;3555;53.248;10.336;2023-08-01T01:34:17;3.15;;;2.33;;
7027;SDS011;3555;53.248;10.336;2023-08-01T01:36:44;3.63;;;1.90;;
7027;SDS011;3555;53.248;10.336;2023-08-01T01:39:12;3.28;;;1.90;;
7027;SDS011;3555;53.248;10.336;2023-08-01T01:41:39;3.47;;;2.00;;
7027;SDS011;3555;53.248;10.336;2023-08-01T01:44:06;2.28;;;2.08;;
7027;SDS011;3555;53.248;10.336;2023-08-01T01:46:33;3.72;;;2.90;;
7027;SDS011;3555;53.248;10.336;2023-08-01T01:48:59;2.95;;;2.17;;
7027;SDS011;3555;53.248;10.336;2023-08-01T01:51:27;2.75;;;2.42;;
7027;SDS011;3555;53.248;10.336;2023-08-01T01:53:56;2.58;;;2.08;;
7027;SDS011;3555;53.248;10.336;2023-08-01T01:56:24;2.90;;;2.25;;
7027;SDS011;3555;53.248;10.336;2023-08-01T01:58:51;3.13;;;2.17;;
7027;SDS011;3555;53.248;10.336;2023-08-01T02:01:17;3.13;;;2.40;;
7027;SDS011;3555;53.248;10.336;2023-08-01T02:03:44;2.75;;;2.15;;
7027;SDS011;3555;53.248;10.336;2023-08-01T02:06:11;4.07;;;2.40;;
7027;SDS011;3555;53.248;10.336;2023-08-01T02:08:38;2.22;;;2.03;;
7027;SDS011;3555;53.248;10.336;2023-08-01T02:11:05;3.55;;;2.67;;
7027;SDS011;3555;53.248;10.336;2023-08-01T02:13:33;3.33;;;2.28;;
7027;SDS011;3555;53.248;10.336;2023-08-01T02:16:00;2.78;;;2.40;;
7027;SDS011;3555;53.248;10.336;2023-08-01T02:18:27;5.47;;;2.63;;
7027;SDS011;3555;53.248;10.336;2023-08-01T02:20:54;2.90;;;2.60;;
7027;SDS011;3555;53.248;10.336;2023-08-01T02:23:20;3.17;;;2.50;;
7027;SDS011;3555;53.248;10.336;2023-08-01T02:25:47;4.82;;;2.55;;
7027;SDS011;3555;53.248;10.336;2023-08-01T02:28:14;3.22;;;2.38;;
7027;SDS011;3555;53.248;10.336;2023-08-01T02:30:42;4.00;;;2.85;;
7027;SDS011;3555;53.248;10.336;2023-08-01T02:33:09;3.10;;;2.80;;
7027;SDS011;3555;53.248;10.336;2023-08-01T02:35:36;3.22;;;2.78;;
7027;SDS011;3555;53.248;10.336;2023-08-01T02:38:03;5.15;;;2.72;;
7027;SDS011;3555;53.248;10.336;2023-08-01T02:40:30;3.22;;;2.38;;
7027;SDS011;3555;53.248;10.336;2023-08-01T02:42:57;4.25;;;2.50;;
7027;SDS011;3555;53.248;10.336;2023-08-01T02:45:24;3.47;;;2.88;;
7027;SDS011;3555;53.248;10.336;2023-08-01T02:47:52;3.65;;;2.63;;
7027;SDS011;3555;53.248;10.336;2023-08-01T02:50:19;4.07;;;2.78;;
7027;SDS011;3555;53.248;10.336;2023-08-01T02:52:46;3.17;;;2.60;;
7027;SDS011;3555;53.248;10.336;2023-08-01T02:55:13;3.50;;;2.75;;
7027;SDS011;3555;53.248;10.336;2023-08-01T02:57:40;3.45;;;2.90;;
7027;SDS011;3555;53.248;10.336;2023-08-01T03:00:07;3.05;;;2.72;;
7027;SDS011;3555;53.248;10.336;2023-08-01T03:02:36;2.65;;;2.45;;
7027;SDS011;3555;53.248;10.336;2023-08-01T03:05:06;2.88;;;2.58;;
7027;SDS011;3555;53.248;10.336;2023-08-01T03:07:34;3.58;;;2.30;;
7027;SDS011;3555;53.248;10.336;2023-08-01T03:10:00;2.75;;;2.55;;
7027;SDS011;3555;53.248;10.336;2023-08-01T03:12:27;4.20;;;2.70;;
7027;SDS011;3555;53.248;10.336;2023-08-01T03:14:54;2.80;;;2.47;;
7027;SDS011;3555;53.248;10.336;2023-08-01T03:17:21;2.95;;;2.63;;
7027;SDS011;3555;53.248;10.336;2023-08-01T03:19:48;4.30;;;2.63;;
7027;SDS011;3555;53.248;10.336;2023-08-01T03:22:16;3.13;;;2.35;;
7027;SDS011;3555;53.248;10.336;2023-08-01T03:24:43;2.80;;;2.50;;
7027;SDS011;3555;53.248;10.336;2023-08-01T03:27:10;2.97;;;2.40;;
7027;SDS011;3555;53.248;10.336;2023-08-01T03:29:37;3.33;;;2.67;;
7027;SDS011;3555;53.248;10.336;2023-08-01T03:32:04;2.70;;;2.40;;
7027;SDS011;3555;53.248;10.336;2023-08-01T03:34:31;2.90;;;2.50;;
7027;SDS011;3555;53.248;10.336;2023-08-01T03:36:58;3.08;;;2.70;;
7027;SDS011;3555;53.248;10.336;2023-08-01T03:39:26;3.42;;;2.70;;
7027;SDS011;3555;53.248;10.336;2023-08-01T03:41:53;2.72;;;2.25;;
7027;SDS011;3555;53.248;10.336;2023-08-01T03:44:20;5.40;;;2.70;;
7027;SDS011;3555;53.248;10.336;2023-08-01T03:46:48;4.40;;;2.45;;
7027;SDS011;3555;53.248;10.336;2023-08-01T03:49:15;3.70;;;2.70;;
7027;SDS011;3555;53.248;10.336;2023-08-01T03:51:43;2.80;;;2.25;;
7027;SDS011;3555;53.248;10.336;2023-08-01T03:54:09;3.47;;;2.55;;
7027;SDS011;3555;53.248;10.336;2023-08-01T03:56:38;3.70;;;2.55;;
7027;SDS011;3555;53.248;10.336;2023-08-01T03:59:08;2.55;;;2.13;;
7027;SDS011;3555;53.248;10.336;2023-08-01T04:01:35;5.18;;;2.58;;
7027;SDS011;3555;53.248;10.336;2023-08-01T04:04:01;3.55;;;2.47;;
7027;SDS011;3555;53.248;10.336;2023-08-01T04:06:28;3.33;;;2.45;;
7027;SDS011;3555;53.248;10.336;2023-08-01T04:08:55;4.18;;;2.45;;
7027;SDS011;3555;53.248;10.336;2023-08-01T04:11:22;2.88;;;2.42;;
7027;SDS011;3555;53.248;10.336;2023-08-01T04:13:51;3.17;;;2.33;;
7027;SDS011;3555;53.248;10.336;2023-08-01T04:16:18;5.40;;;2.70;;
7027;SDS011;3555;53.248;10.336;2023-08-01T04:18:45;2.42;;;2.22;;
7027;SDS011;3555;53.248;10.336;2023-08-01T04:21:12;3.45;;;2.33;;
7027;SDS011;3555;53.248;10.336;2023-08-01T04:23:40;3.42;;;2.22;;
7027;SDS011;3555;53.248;10.336;2023-08-01T04:26:07;3.47;;;2.42;;
7027;SDS011;3555;53.248;10.336;2023-08-01T04:28:34;2.97;;;2.10;;
7027;SDS011;3555;53.248;10.336;2023-08-01T04:31:03;3.42;;;2.40;;
7027;SDS011;3555;53.248;10.336;2023-08-01T04:33:29;3.72;;;2.40;;
7027;SDS011;3555;53.248;10.336;2023-08-01T04:35:56;3.53;;;2.42;;
7027;SDS011;3555;53.248;10.336;2023-08-01T04:38:23;2.65;;;2.45;;
7027;SDS011;3555;53.248;10.336;2023-08-01T04:40:50;2.75;;;2.45;;
7027;SDS011;3555;53.248;10.336;2023-08-01T04:43:17;3.78;;;2.28;;
7027;SDS011;3555;53.248;10.336;2023-08-01T04:45:44;3.72;;;2.40;;
7027;SDS011;3555;53.248;10.336;2023-08-01T04:48:13;2.88;;;2.53;;
7027;SDS011;3555;53.248;10.336;2023-08-01T04:50:40;3.47;;;2.63;;
7027;SDS011;3555;53.248;10.336;2023-08-01T04:53:06;4.50;;;2.63;;
7027;SDS011;3555;53.248;10.336;2023-08-01T04:55:33;3.65;;;2.80;;
7027;SDS011;3555;53.248;10.336;2023-08-01T04:58:00;2.90;;;2.30;;
7027;SDS011;3555;53.248;10.336;2023-08-01T05:00:27;4.32;;;2.67;;
7027;SDS011;3555;53.248;10.336;2023-08-01T05:02:54;3.05;;;2.47;;
7027;SDS011;3555;53.248;10.336;2023-08-01T05:05:22;2.67;;;2.35;;
7027;SDS011;3555;53.248;10.336;2023-08-01T05:07:49;2.70;;;2.50;;
7027;SDS011;3555;53.248;10.336;2023-08-01T05:10:16;3.47;;;2.75;;
7027;SDS011;3555;53.248;10.336;2023-08-01T05:12:43;4.32;;;3.17;;
7027;SDS011;3555;53.248;10.336;2023-08-01T05:15:09;4.25;;;2.70;;
7027;SDS011;3555;53.248;10.336;2023-08-01T05:17:37;5.35;;;2.88;;
7027;SDS011;3555;53.248;10.336;2023-08-01T05:20:05;3.40;;;2.80;;
7027;SDS011;3555;53.248;10.336;2023-08-01T05:22:34;3.30;;;2.65;;
7027;SDS011;3555;53.248;10.336;2023-08-01T05:25:01;3.42;;;2.92;;
7027;SDS011;3555;53.248;10.336;2023-08-01T05:27:29;4.50;;;3.08;;
7027;SDS011;3555;53.248;10.336;2023-08-01T05:29:56;3.40;;;2.95;;
7027;SDS011;3555;53.248;10.336;2023-08-01T05:32:23;5.13;;;3.22;;
7027;SDS011;3555;53.248;10.336;2023-08-01T05:34:50;3.38;;;3.03;;
7027;SDS011;3555;53.248;10.336;2023-08-01T05:37:17;4.07;;;3.03;;
7027;SDS011;3555;53.248;10.336;2023-08-01T05:39:45;4.97;;;3.33;;
7027;SDS011;3555;53.248;10.336;2023-08-01T05:42:12;6.15;;;3.58;;
7027;SDS011;3555;53.248;10.336;2023-08-01T05:44:39;6.40;;;3.78;;
7027;SDS011;3555;53.248;10.336;2023-08-01T05:47:06;5.95;;;3.15;;
7027;SDS011;3555;53.248;10.336;2023-08-01T05:49:33;3.95;;;3.55;;
7027;SDS011;3555;53.248;10.336;2023-08-01T05:51:59;7.82;;;3.50;;
7027;SDS011;3555;53.248;10.336;2023-08-01T05:54:26;4.82;;;3.70;;
7027;SDS011;3555;53.248;10.336;2023-08-01T05:56:54;5.22;;;3.70;;
7027;SDS011;3555;53.248;10.336;2023-08-01T05:59:21;5.18;;;3.92;;
7027;SDS011;3555;53.248;10.336;2023-08-01T06:01:48;3.60;;;3.30;;
7027;SDS011;3555;53.248;10.336;2023-08-01T06:04:15;5.30;;;4.25;;
7027;SDS011;3555;53.248;10.336;2023-08-01T06:06:42;9.05;;;4.32;;
7027;SDS011;3555;53.248;10.336;2023-08-01T06:09:09;5.35;;;3.97;;
7027;SDS011;3555;53.248;10.336;2023-08-01T06:11:36;5.00;;;3.70;;
7027;SDS011;3555;53.248;10.336;2023-08-01T06:14:04;5.53;;;4.00;;
7027;SDS011;3555;53.248;10.336;2023-08-01T06:16:31;8.50;;;3.92;;
7027;SDS011;3555;53.248;10.336;2023-08-01T06:18:58;4.55;;;4.05;;
7027;SDS011;3555;53.248;10.336;2023-08-01T06:21:25;8.75;;;3.85;;
7027;SDS011;3555;53.248;10.336;2023-08-01T06:23:52;7.10;;;4.32;;
7027;SDS011;3555;53.248;10.336;2023-08-01T06:26:19;5.95;;;4.03;;
7027;SDS011;3555;53.248;10.336;2023-08-01T06:28:45;6.07;;;4.03;;
7027;SDS011;3555;53.248;10.336;2023-08-01T06:31:14;5.95;;;4.60;;
7027;SDS011;3555;53.248;10.336;2023-08-01T06:33:41;10.18;;;4.28;;
7027;SDS011;3555;53.248;10.336;2023-08-01T06:36:07;8.15;;;4.55;;
7027;SDS011;3555;53.248;10.336;2023-08-01T06:38:34;5.82;;;4.65;;
7027;SDS011;3555;53.248;10.336;2023-08-01T06:41:01;8.48;;;4.50;;
7027;SDS011;3555;53.248;10.336;2023-08-01T06:43:28;7.65;;;4.75;;
7027;SDS011;3555;53.248;10.336;2023-08-01T06:45:55;6.47;;;3.88;;
7027;SDS011;3555;53.248;10.336;2023-08-01T06:48:23;6.28;;;4.35;;
7027;SDS011;3555;53.248;10.336;2023-08-01T06:50:50;6.78;;;4.95;;
7027;SDS011;3555;53.248;10.336;2023-08-01T06:53:17;5.55;;;4.15;;
7027;SDS011;3555;53.248;10.336;2023-08-01T06:55:44;8.52;;;5.35;;
7027;SDS011;3555;53.248;10.336;2023-08-01T06:58:11;9.27;;;4.90;;
7027;SDS011;3555;53.248;10.336;2023-08-01T07:00:38;7.88;;;4.68;;
7027;SDS011;3555;53.248;10.336;2023-08-01T07:03:05;9.70;;;4.75;;
7027;SDS011;3555;53.248;10.336;2023-08-01T07:05:33;6.05;;;4.40;;
7027;SDS011;3555;53.248;10.336;2023-08-01T07:08:00;7.35;;;4.60;;
7027;SDS011;3555;53.248;10.336;2023-08-01T07:10:27;6.43;;;4.82;;
7027;SDS011;3555;53.248;10.336;2023-08-01T07:12:54;5.55;;;4.80;;
7027;SDS011;3555;53.248;10.336;2023-08-01T07:15:20;7.60;;;4.50;;
7027;SDS011;3555;53.248;10.336;2023-08-01T07:17:47;5.03;;;3.65;;
7027;SDS011;3555;53.248;10.336;2023-08-01T07:20:14;4.35;;;2.67;;
7027;SDS011;3555;53.248;10.336;2023-08-01T07:22:42;4.15;;;2.83;;
7027;SDS011;3555;53.248;10.336;2023-08-01T07:25:09;2.97;;;2.30;;
7027;SDS011;3555;53.248;10.336;2023-08-01T07:27:36;4.35;;;2.30;;
7027;SDS011;3555;53.248;10.336;2023-08-01T07:30:04;3.72;;;2.47;;
7027;SDS011;3555;53.248;10.336;2023-08-01T07:32:31;6.28;;;2.28;;
7027;SDS011;3555;53.248;10.336;2023-08-01T07:34:58;4.47;;;2.20;;
7027;SDS011;3555;53.248;10.336;2023-08-01T07:37:25;2.53;;;2.30;;
7027;SDS011;3555;53.248;10.336;2023-08-01T07:39:55;4.38;;;2.65;;
7027;SDS011;3555;53.248;10.336;2023-08-01T07:42:22;4.13;;;2.10;;
7027;SDS011;3555;53.248;10.336;2023-08-01T07:44:49;5.28;;;2.30;;
7027;SDS011;3555;53.248;10.336;2023-08-01T07:47:16;4.90;;;1.98;;
7027;SDS011;3555;53.248;10.336;2023-08-01T07:49:43;6.45;;;2.25;;
7027;SDS011;3555;53.248;10.336;2023-08-01T07:52:09;3.17;;;2.10;;
7027;SDS011;3555;53.248;10.336;2023-08-01T07:54:36;4.82;;;2.30;;
7027;SDS011;3555;53.248;10.336;2023-08-01T07:57:05;3.70;;;2.30;;
7027;SDS011;3555;53.248;10.336;2023-08-01T07:59:32;4.55;;;2.30;;
7027;SDS011;3555;53.248;10.336;2023-08-01T08:01:59;4.32;;;2.33;;
7027;SDS011;3555;53.248;10.336;2023-08-01T08:04:26;4.90;;;2.35;;
7027;SDS011;3555;53.248;10.336;2023-08-01T08:06:53;4.22;;;2.67;;
7027;SDS011;3555;53.248;10.336;2023-08-01T08:09:24;6.32;;;3.17;;
7027;SDS011;3555;53.248;10.336;2023-08-01T08:11:51;3.20;;;2.50;;
7027;SDS011;3555;53.248;10.336;2023-08-01T08:14:20;7.35;;;2.55;;
7027;SDS011;3555;53.248;10.336;2023-08-01T08:16:48;7.60;;;3.15;;
7027;SDS011;3555;53.248;10.336;2023-08-01T08:19:15;4.70;;;2.72;;
7027;SDS011;3555;53.248;10.336;2023-08-01T08:21:41;4.90;;;2.88;;
7027;SDS011;3555;53.248;10.336;2023-08-01T08:24:08;9.32;;;3.35;;
7027;SDS011;3555;53.248;10.336;2023-08-01T08:26:36;7.57;;;2.72;;
7027;SDS011;3555;53.248;10.336;2023-08-01T08:29:04;5.85;;;2.95;;
7027;SDS011;3555;53.248;10.336;2023-08-01T08:31:33;5.95;;;2.67;;
7027;SDS011;3555;53.248;10.336;2023-08-01T08:34:00;3.80;;;2.58;;
7027;SDS011;3555;53.248;10.336;2023-08-01T08:36:27;5.10;;;2.92;;
7027;SDS011;3555;53.248;10.336;2023-08-01T08:38:54;6.53;;;2.75;;
7027;SDS011;3555;53.248;10.336;2023-08-01T08:41:21;5.10;;;2.90;;
7027;SDS011;3555;53.248;10.336;2023-08-01T08:43:52;7.63;;;3.42;;
7027;SDS011;3555;53.248;10.336;2023-08-01T08:46:22;6.65;;;3.08;;
7027;SDS011;3555;53.248;10.336;2023-08-01T08:48:55;5.15;;;3.05;;
7027;SDS011;3555;53.248;10.336;2023-08-01T08:51:23;6.68;;;3.53;;
7027;SDS011;3555;53.248;10.336;2023-08-01T08:53:53;5.68;;;3.13;;
7027;SDS011;3555;53.248;10.336;2023-08-01T08:56:20;6.18;;;2.55;;
7027;SDS011;3555;53.248;10.336;2023-08-01T08:58:48;4.30;;;2.50;;
7027;SDS011;3555;53.248;10.336;2023-08-01T09:01:16;5.57;;;3.00;;
7027;SDS011;3555;53.248;10.336;2023-08-01T09:03:44;9.10;;;2.85;;
7027;SDS011;3555;53.248;10.336;2023-08-01T09:06:14;4.32;;;2.60;;
7027;SDS011;3555;53.248;10.336;2023-08-01T09:08:46;8.18;;;2.80;;
7027;SDS011;3555;53.248;10.336;2023-08-01T09:11:17;10.60;;;3.10;;
7027;SDS011;3555;53.248;10.336;2023-08-01T09:13:44;5.28;;;2.47;;
7027;SDS011;3555;53.248;10.336;2023-08-01T09:16:12;4.72;;;2.45;;
7027;SDS011;3555;53.248;10.336;2023-08-01T09:18:47;7.05;;;2.97;;
7027;SDS011;3555;53.248;10.336;2023-08-01T09:21:18;4.85;;;2.50;;
7027;SDS011;3555;53.248;10.336;2023-08-01T09:23:45;4.97;;;2.50;;
7027;SDS011;3555;53.248;10.336;2023-08-01T09:26:13;3.35;;;1.95;;
7027;SDS011;3555;53.248;10.336;2023-08-01T09:28:40;2.88;;;1.52;;
7027;SDS011;3555;53.248;10.336;2023-08-01T09:31:07;3.00;;;2.10;;
7027;SDS011;3555;53.248;10.336;2023-08-01T09:33:37;3.08;;;2.05;;
7027;SDS011;3555;53.248;10.336;2023-08-01T09:36:06;3.97;;;2.00;;
7027;SDS011;3555;53.248;10.336;2023-08-01T09:38:35;5.57;;;2.00;;
7027;SDS011;3555;53.248;10.336;2023-08-01T09:41:02;5.57;;;1.92;;
7027;SDS011;3555;53.248;10.336;2023-08-01T09:43:33;2.40;;;1.42;;
7027;SDS011;3555;53.248;10.336;2023-08-01T09:46:01;2.95;;;1.40;;
7027;SDS011;3555;53.248;10.336;2023-08-01T09:48:28;1.95;;;1.30;;
7027;SDS011;3555;53.248;10.336;2023-08-01T09:51:06;2.30;;;1.73;;
7027;SDS011;3555;53.248;10.336;2023-08-01T09:53:35;2.10;;;1.30;;
7027;SDS011;3555;53.248;10.336;2023-08-01T09:56:12;2.45;;;1.30;;
7027;SDS011;3555;53.248;10.336;2023-08-01T09:58:42;2.60;;;1.40;;
7027;SDS011;3555;53.248;10.336;2023-08-01T10:01:09;2.10;;;1.50;;
7027;SDS011;3555;53.248;10.336;2023-08-01T10:03:37;5.72;;;1.33;;
7027;SDS011;3555;53.248;10.336;2023-08-01T10:06:05;3.75;;;1.40;;
7027;SDS011;3555;53.248;10.336;2023-08-01T10:08:32;2.38;;;1.17;;
7027;SDS011;3555;53.248;10.336;2023-08-01T10:11:02;2.28;;;1.27;;
7027;SDS011;3555;53.248;10.336;2023-08-01T10:13:30;2.80;;;1.10;;
7027;SDS011;3555;53.248;10.336;2023-08-01T10:15:59;2.63;;;0.90;;
7027;SDS011;3555;53.248;10.336;2023-08-01T10:18:26;2.90;;;1.20;;
7027;SDS011;3555;53.248;10.336;2023-08-01T10:20:55;1.90;;;1.00;;
7027;SDS011;3555;53.248;10.336;2023-08-01T10:23:23;1.88;;;0.90;;
7027;SDS011;3555;53.248;10.336;2023-08-01T10:25:51;1.50;;;0.80;;
7027;SDS011;3555;53.248;10.336;2023-08-01T10:28:20;2.05;;;1.17;;
7027;SDS011;3555;53.248;10.336;2023-08-01T10:31:05;2.40;;;1.00;;
7027;SDS011;3555;53.248;10.336;2023-08-01T10:33:33;2.10;;;0.85;;
7027;SDS011;3555;53.248;10.336;2023-08-01T10:36:00;3.25;;;1.10;;
7027;SDS011;3555;53.248;10.336;2023-08-01T10:38:44;3.17;;;0.93;;
7027;SDS011;3555;53.248;10.336;2023-08-01T10:41:18;2.08;;;0.80;;
7027;SDS011;3555;53.248;10.336;2023-08-01T10:43:46;3.63;;;1.33;;
7027;SDS011;3555;53.248;10.336;2023-08-01T10:46:13;3.15;;;1.10;;
7027;SDS011;3555;53.248;10.336;2023-08-01T10:48:50;2.13;;;1.08;;
7027;SDS011;3555;53.248;10.336;2023-08-01T10:51:17;1.83;;;1.20;;
7027;SDS011;3555;53.248;10.336;2023-08-01T10:53:44;2.10;;;1.13;;
7027;SDS011;3555;53.248;10.336;2023-08-01T10:56:18;3.15;;;1.15;;
7027;SDS011;3555;53.248;10.336;2023-08-01T10:58:47;1.92;;;1.00;;
7027;SDS011;3555;53.248;10.336;2023-08-01T11:01:14;3.30;;;1.10;;
7027;SDS011;3555;53.248;10.336;2023-08-01T11:03:41;1.67;;;0.88;;
7027;SDS011;3555;53.248;10.336;2023-08-01T11:06:09;3.30;;;1.38;;
7027;SDS011;3555;53.248;10.336;2023-08-01T11:08:36;2.58;;;1.20;;
7027;SDS011;3555;53.248;10.336;2023-08-01T11:11:07;1.70;;;0.80;;
7027;SDS011;3555;53.248;10.336;2023-08-01T11:13:36;1.55;;;0.90;;
7027;SDS011;3555;53.248;10.336;2023-08-01T11:16:05;2.63;;;0.80;;
7027;SDS011;3555;53.248;10.336;2023-08-01T11:18:40;3.53;;;1.40;;
7027;SDS011;3555;53.248;10.336;2023-08-01T11:21:08;2.08;;;1.05;;
7027;SDS011;3555;53.248;10.336;2023-08-01T11:23:35;1.75;;;0.90;;
7027;SDS011;3555;53.248;10.336;2023-08-01T11:26:05;2.35;;;1.20;;
7027;SDS011;3555;53.248;10.336;2023-08-01T11:28:33;4.90;;;0.90;;
7027;SDS011;3555;53.248;10.336;2023-08-01T11:31:00;2.65;;;1.20;;
7027;SDS011;3555;53.248;10.336;2023-08-01T11:33:29;2.33;;;1.08;;
7027;SDS011;3555;53.248;10.336;2023-08-01T11:35:56;2.80;;;0.90;;
7027;SDS011;3555;53.248;10.336;2023-08-01T11:38:25;1.67;;;1.00;;
7027;SDS011;3555;53.248;10.336;2023-08-01T11:40:54;3.78;;;1.33;;
7027;SDS011;3555;53.248;10.336;2023-08-01T11:43:22;1.42;;;0.80;;
7027;SDS011;3555;53.248;10.336;2023-08-01T11:45:50;3.22;;;0.90;;
7027;SDS011;3555;53.248;10.336;2023-08-01T11:48:17;1.83;;;1.10;;
7027;SDS011;3555;53.248;10.336;2023-08-01T11:50:46;1.55;;;0.75;;
7027;SDS011;3555;53.248;10.336;2023-08-01T11:53:19;4.25;;;1.40;;
7027;SDS011;3555;53.248;10.336;2023-08-01T11:55:47;6.72;;;1.10;;
7027;SDS011;3555;53.248;10.336;2023-08-01T11:58:14;2.60;;;1.00;;
7027;SDS011;3555;53.248;10.336;2023-08-01T12:00:41;3.72;;;0.90;;
7027;SDS011;3555;53.248;10.336;2023-08-01T12:03:09;2.20;;;1.00;;
7027;SDS011;3555;53.248;10.336;2023-08-01T12:05:38;4.00;;;0.82;;
7027;SDS011;3555;53.248;10.336;2023-08-01T12:08:12;1.67;;;1.00;;
7027;SDS011;3555;53.248;10.336;2023-08-01T12:10:40;3.63;;;1.00;;
7027;SDS011;3555;53.248;10.336;2023-08-01T12:13:18;3.20;;;1.20;;
7027;SDS011;3555;53.248;10.336;2023-08-01T12:15:46;2.53;;;1.15;;
7027;SDS011;3555;53.248;10.336;2023-08-01T12:18:19;3.63;;;1.15;;
7027;SDS011;3555;53.248;10.336;2023-08-01T12:20:46;2.97;;;1.08;;
7027;SDS011;3555;53.248;10.336;2023-08-01T12:23:14;1.63;;;0.93;;
7027;SDS011;3555;53.248;10.336;2023-08-01T12:25:41;2.78;;;1.02;;
7027;SDS011;3555;53.248;10.336;2023-08-01T12:28:08;1.98;;;1.05;;
7027;SDS011;3555;53.248;10.336;2023-08-01T12:30:35;2.55;;;1.23;;
7027;SDS011;3555;53.248;10.336;2023-08-01T12:33:05;4.00;;;1.60;;
7027;SDS011;3555;53.248;10.336;2023-08-01T12:35:32;2.53;;;1.02;;
7027;SDS011;3555;53.248;10.336;2023-08-01T12:37:58;2.88;;;1.00;;
7027;SDS011;3555;53.248;10.336;2023-08-01T12:40:27;3.60;;;1.15;;
7027;SDS011;3555;53.248;10.336;2023-08-01T12:42:53;2.47;;;1.23;;
7027;SDS011;3555;53.248;10.336;2023-08-01T12:45:20;2.28;;;1.13;;
7027;SDS011;3555;53.248;10.336;2023-08-01T12:47:48;2.85;;;1.23;;
7027;SDS011;3555;53.248;10.336;2023-08-01T12:50:15;2.35;;;1.02;;
7027;SDS011;3555;53.248;10.336;2023-08-01T12:52:42;2.30;;;1.20;;
7027;SDS011;3555;53.248;10.336;2023-08-01T12:55:09;2.88;;;1.02;;
7027;SDS011;3555;53.248;10.336;2023-08-01T12:57:37;3.15;;;1.30;;
7027;SDS011;3555;53.248;10.336;2023-08-01T13:00:05;2.47;;;1.10;;
7027;SDS011;3555;53.248;10.336;2023-08-01T13:02:35;1.70;;;0.93;;
7027;SDS011;3555;53.248;10.336;2023-08-01T13:05:02;2.10;;;1.20;;
7027;SDS011;3555;53.248;10.336;2023-08-01T13:07:29;3.35;;;1.30;;
7027;SDS011;3555;53.248;10.336;2023-08-01T13:09:57;2.50;;;1.30;;
7027;SDS011;3555;53.248;10.336;2023-08-01T13:12:24;2.13;;;1.00;;
7027;SDS011;3555;53.248;10.336;2023-08-01T13:14:52;2.38;;;1.15;;
7027;SDS011;3555;53.248;10.336;2023-08-01T13:17:19;2.28;;;1.10;;
7027;SDS011;3555;53.248;10.336;2023-08-01T13:19:46;2.17;;;1.10;;
7027;SDS011;3555;53.248;10.336;2023-08-01T13:22:13;2.13;;;1.10;;
7027;SDS011;3555;53.248;10.336;2023-08-01T13:24:39;1.80;;;1.20;;
7027;SDS011;3555;53.248;10.336;2023-08-01T13:27:06;14.32;;;1.30;;
7027;SDS011;3555;53.248;10.336;2023-08-01T13:29:34;2.42;;;1.10;;
7027;SDS011;3555;53.248;10.336;2023-08-01T13:32:03;3.08;;;1.20;;
7027;SDS011;3555;53.248;10.336;2023-08-01T13:34:30;2.33;;;1.10;;
7027;SDS011;3555;53.248;10.336;2023-08-01T13:36:57;1.65;;;0.93;;
7027;SDS011;3555;53.248;10.336;2023-08-01T13:39:24;1.77;;;1.10;;
7027;SDS011;3555;53.248;10.336;2023-08-01T13:41:51;3.38;;;1.25;;
7027;SDS011;3555;53.248;10.336;2023-08-01T13:44:18;2.90;;;1.10;;
7027;SDS011;3555;53.248;10.336;2023-08-01T13:46:44;2.20;;;0.90;;
7027;SDS011;3555;53.248;10.336;2023-08-01T13:49:13;2.75;;;1.05;;
7027;SDS011;3555;53.248;10.336;2023-08-01T13:51:40;3.28;;;1.20;;
7027;SDS011;3555;53.248;10.336;2023-08-01T13:54:07;2.58;;;1.10;;
7027;SDS011;3555;53.248;10.336;2023-08-01T13:56:34;1.73;;;1.00;;
7027;SDS011;3555;53.248;10.336;2023-08-01T13:59:01;1.98;;;0.88;;
7027;SDS011;3555;53.248;10.336;2023-08-01T14:01:28;1.73;;;0.85;;
7027;SDS011;3555;53.248;10.336;2023-08-01T14:03:55;3.25;;;1.25;;
7027;SDS011;3555;53.248;10.336;2023-08-01T14:06:23;2.15;;;1.05;;
7027;SDS011;3555;53.248;10.336;2023-08-01T14:08:50;3.95;;;1.40;;
7027;SDS011;3555;53.248;10.336;2023-08-01T14:11:17;2.58;;;1.05;;
7027;SDS011;3555;53.248;10.336;2023-08-01T14:13:44;1.83;;;1.00;;
7027;SDS011;3555;53.248;10.336;2023-08-01T14:16:11;2.03;;;0.88;;
7027;SDS011;3555;53.248;10.336;2023-08-01T14:18:37;4.40;;;1.42;;
7027;SDS011;3555;53.248;10.336;2023-08-01T14:21:04;2.35;;;1.10;;
7027;SDS011;3555;53.248;10.336;2023-08-01T14:23:33;1.58;;;1.00;;
7027;SDS011;3555;53.248;10.336;2023-08-01T14:26:01;2.63;;;0.90;;
7027;SDS011;3555;53.248;10.336;2023-08-01T14:28:28;2.20;;;1.00;;
7027;SDS011;3555;53.248;10.336;2023-08-01T14:30:55;3.28;;;1.10;;
7027;SDS011;3555;53.248;10.336;2023-08-01T14:33:25;2.30;;;1.00;;
7027;SDS011;3555;53.248;10.336;2023-08-01T14:35:53;1.92;;;0.80;;
7027;SDS011;3555;53.248;10.336;2023-08-01T14:38:20;1.50;;;0.95;;
7027;SDS011;3555;53.248;10.336;2023-08-01T14:40:48;1.17;;;0.70;;
7027;SDS011;3555;53.248;10.336;2023-08-01T14:43:15;3.22;;;0.80;;
7027;SDS011;3555;53.248;10.336;2023-08-01T14:45:41;1.75;;;0.80;;
7027;SDS011;3555;53.248;10.336;2023-08-01T14:48:08;2.15;;;0.90;;
7027;SDS011;3555;53.248;10.336;2023-08-01T14:50:37;1.45;;;0.90;;
7027;SDS011;3555;53.248;10.336;2023-08-01T14:53:04;3.05;;;0.90;;
7027;SDS011;3555;53.248;10.336;2023-08-01T14:55:33;1.70;;;0.77;;
7027;SDS011;3555;53.248;10.336;2023-08-01T14:58:01;1.52;;;0.70;;
7027;SDS011;3555;53.248;10.336;2023-08-01T15:00:28;1.52;;;1.00;;
7027;SDS011;3555;53.248;10.336;2023-08-01T15:02:55;1.60;;;0.80;;